Time;durP1;ratioP1;P1;durP2;ratioP2;P2;SDS_P1;SDS_P2;PMS_P1;PMS_P2;Temp;Humidity;BMP_temperature;BMP_pressure;BME280_temperature;BME280_humidity;BME280_pressure;Samples;Min_cycle;Max_cycle;Signal;HPM_P1;HPM_P2
2021/01/06 00:00:52;;;;;;;12.97;9.80;;;2.10;99.90;;;;;;5023091;28;20802;-73
2021/01/06 00:03:21;;;;;;;13.23;10.80;;;2.00;99.90;;;;;;5020995;28;20273;-73
2021/01/06 00:05:51;;;;;;;12.87;10.60;;;2.00;99.90;;;;;;5016619;28;20218;-73
2021/01/06 00:08:17;;;;;;;12.77;11.00;;;2.00;99.90;;;;;;5026274;28;20457;-73
2021/01/06 00:10:45;;;;;;;12.20;10.17;;;2.10;99.90;;;;;;5028915;28;20436;-75
2021/01/06 00:13:11;;;;;;;13.43;10.20;;;2.10;99.90;;;;;;5022452;28;20202;-74
2021/01/06 00:15:37;;;;;;;14.03;11.10;;;2.20;99.90;;;;;;5017877;28;20522;-74
2021/01/06 00:18:04;;;;;;;13.87;10.10;;;2.20;99.90;;;;;;5026215;28;20536;-73
2021/01/06 00:20:31;;;;;;;12.13;9.47;;;2.10;99.90;;;;;;5024463;28;20214;-74
2021/01/06 00:22:57;;;;;;;11.57;9.80;;;2.10;99.90;;;;;;5028194;28;20520;-74
2021/01/06 00:25:29;;;;;;;16.27;11.10;;;2.00;99.90;;;;;;5021684;28;20433;-73
2021/01/06 00:27:55;;;;;;;12.83;10.70;;;2.00;99.90;;;;;;5019399;28;20450;-72
2021/01/06 00:30:23;;;;;;;13.63;10.63;;;2.10;99.90;;;;;;5027241;28;20438;-73
2021/01/06 00:32:48;;;;;;;14.70;11.63;;;2.10;99.90;;;;;;5025333;28;20519;-74
2021/01/06 00:35:14;;;;;;;13.83;10.70;;;2.10;99.90;;;;;;5028025;28;20845;-73
2021/01/06 00:37:39;;;;;;;15.33;9.40;;;2.10;99.90;;;;;;5021651;28;20214;-73
2021/01/06 00:40:06;;;;;;;12.83;9.17;;;2.10;99.90;;;;;;5009252;28;20573;-73
2021/01/06 00:42:35;;;;;;;12.43;9.03;;;2.10;99.90;;;;;;5018474;28;20717;-73
2021/01/06 00:45:01;;;;;;;12.20;9.43;;;2.10;99.90;;;;;;5025205;28;20469;-73
2021/01/06 00:47:27;;;;;;;13.27;9.73;;;2.00;99.90;;;;;;5023872;28;20429;-72
2021/01/06 00:49:52;;;;;;;12.37;9.53;;;2.10;99.90;;;;;;5023887;28;20489;-73
2021/01/06 00:52:20;;;;;;;13.40;10.07;;;2.10;99.90;;;;;;5026575;28;20582;-73
2021/01/06 00:54:48;;;;;;;11.67;9.60;;;2.20;99.90;;;;;;5008001;28;20193;-75
2021/01/06 00:57:14;;;;;;;11.67;10.47;;;2.10;99.90;;;;;;5017801;28;20507;-75
2021/01/06 00:59:39;;;;;;;10.73;9.30;;;2.20;99.90;;;;;;5028100;28;20849;-74
2021/01/06 01:02:05;;;;;;;13.77;10.17;;;2.20;99.90;;;;;;5028358;28;20189;-72
2021/01/06 01:04:30;;;;;;;11.70;8.83;;;2.20;99.90;;;;;;5024573;28;20217;-72
2021/01/06 01:06:56;;;;;;;10.30;9.20;;;2.20;99.90;;;;;;5022688;28;20222;-73
2021/01/06 01:09:21;;;;;;;11.80;10.10;;;2.30;99.90;;;;;;5024729;28;20215;-73
2021/01/06 01:11:47;;;;;;;13.43;9.97;;;2.20;99.90;;;;;;5028558;28;20612;-73
2021/01/06 01:14:12;;;;;;;11.07;9.00;;;2.20;99.90;;;;;;5020042;28;20311;-73
2021/01/06 01:16:46;;;;;;;11.20;9.93;;;2.30;99.90;;;;;;5027876;28;20198;-73
2021/01/06 01:19:12;;;;;;;11.43;9.37;;;2.10;99.90;;;;;;5023950;28;20226;-73
2021/01/06 01:21:38;;;;;;;10.93;9.60;;;2.20;99.90;;;;;;5009116;28;20824;-73
2021/01/06 01:24:05;;;;;;;10.70;9.03;;;2.10;99.90;;;;;;5008192;28;20470;-73
2021/01/06 01:26:30;;;;;;;9.47;8.43;;;2.10;99.90;;;;;;5022167;28;20242;-74
2021/01/06 01:28:56;;;;;;;10.47;9.37;;;2.10;99.90;;;;;;5024254;28;20883;-75
2021/01/06 01:31:30;;;;;;;11.70;9.20;;;2.10;99.90;;;;;;5014237;28;20634;-73
2021/01/06 01:33:56;;;;;;;11.73;9.70;;;2.20;99.90;;;;;;5025555;28;20183;-72
2021/01/06 01:36:21;;;;;;;10.97;8.97;;;2.20;99.90;;;;;;5029984;28;20477;-73
2021/01/06 01:38:47;;;;;;;14.60;11.17;;;2.20;99.90;;;;;;5019963;28;20203;-73
2021/01/06 01:41:13;;;;;;;12.27;9.90;;;2.10;99.90;;;;;;5023917;28;20191;-73
2021/01/06 01:43:39;;;;;;;13.10;10.43;;;2.10;99.90;;;;;;5007731;28;20207;-72
2021/01/06 01:46:06;;;;;;;11.10;9.93;;;2.10;99.90;;;;;;5011664;28;20444;-73
2021/01/06 01:48:49;;;;;;;13.93;10.10;;;2.10;99.90;;;;;;5028525;28;20578;-73
2021/01/06 01:51:24;;;;;;;13.10;10.77;;;2.20;99.90;;;;;;5028678;28;20425;-72
2021/01/06 01:54:08;;;;;;;11.30;9.00;;;2.10;99.90;;;;;;5023852;28;20437;-72
2021/01/06 01:56:52;;;;;;;10.60;8.87;;;2.10;99.90;;;;;;5021467;28;20418;-73
2021/01/06 01:59:42;;;;;;;11.27;9.27;;;2.20;99.90;;;;;;5023665;28;20457;-71
2021/01/06 02:02:31;;;;;;;10.57;9.03;;;2.20;99.90;;;;;;5006243;28;20851;-72
2021/01/06 02:05:20;;;;;;;9.63;8.63;;;2.20;99.90;;;;;;5020757;28;21000;-72
2021/01/06 02:07:58;;;;;;;10.63;9.47;;;2.20;99.90;;;;;;5015794;28;20450;-72
2021/01/06 02:10:30;;;;;;;10.47;9.10;;;2.20;99.90;;;;;;5020530;28;20474;-71
2021/01/06 02:13:28;;;;;;;9.40;7.53;;;2.20;99.90;;;;;;5026594;28;20434;-72
2021/01/06 02:16:04;;;;;;;10.70;8.33;;;2.10;99.90;;;;;;5020454;28;20426;-75
2021/01/06 02:18:30;;;;;;;10.37;8.83;;;2.10;99.90;;;;;;5004288;28;20471;-73
2021/01/06 02:21:22;;;;;;;11.07;8.27;;;2.10;99.90;;;;;;5019964;28;20990;-73
2021/01/06 02:23:51;;;;;;;11.10;8.30;;;2.10;99.90;;;;;;5005265;28;20225;-74
2021/01/06 02:26:18;;;;;;;11.13;9.23;;;2.20;99.90;;;;;;5022086;28;20422;-75
2021/01/06 02:28:45;;;;;;;9.70;7.30;;;2.20;99.90;;;;;;5034507;28;20540;-74
2021/01/06 02:31:11;;;;;;;8.43;7.33;;;2.10;99.90;;;;;;5022841;28;20427;-74
2021/01/06 02:33:38;;;;;;;9.50;8.00;;;2.20;99.90;;;;;;5026250;28;20848;-74
2021/01/06 02:36:04;;;;;;;9.93;8.07;;;2.20;99.90;;;;;;5017405;28;20179;-73
2021/01/06 02:38:30;;;;;;;8.50;7.50;;;2.20;99.90;;;;;;5025232;28;20461;-74
2021/01/06 02:40:57;;;;;;;7.50;6.80;;;2.20;99.90;;;;;;5025534;28;20445;-73
2021/01/06 02:43:25;;;;;;;8.70;7.50;;;2.20;99.90;;;;;;5014726;28;20473;-75
2021/01/06 02:45:51;;;;;;;9.93;7.33;;;2.20;99.90;;;;;;5018649;28;20437;-74
2021/01/06 02:48:18;;;;;;;9.73;7.70;;;2.30;99.90;;;;;;5021047;28;20536;-73
2021/01/06 02:50:47;;;;;;;8.40;7.40;;;2.20;99.90;;;;;;5008535;28;20440;-73
2021/01/06 02:53:19;;;;;;;9.17;7.27;;;2.30;99.90;;;;;;5025735;28;20465;-74
2021/01/06 02:55:47;;;;;;;8.43;7.27;;;2.20;99.90;;;;;;5026088;28;21005;-73
2021/01/06 02:58:17;;;;;;;9.80;7.07;;;2.20;99.90;;;;;;5025295;28;20454;-73
2021/01/06 03:00:43;;;;;;;8.83;7.93;;;2.20;99.90;;;;;;5020751;28;20462;-73
2021/01/06 03:03:12;;;;;;;9.43;7.80;;;2.30;99.90;;;;;;5025813;28;20518;-73
2021/01/06 03:05:45;;;;;;;10.33;7.63;;;2.30;99.90;;;;;;5024778;28;20526;-74
2021/01/06 03:08:13;;;;;;;10.07;7.80;;;2.20;99.90;;;;;;5000746;28;20969;-74
2021/01/06 03:10:39;;;;;;;9.20;7.77;;;2.30;99.90;;;;;;5004090;28;20457;-73
2021/01/06 03:13:05;;;;;;;10.00;8.40;;;2.20;99.90;;;;;;5023096;28;20923;-74
2021/01/06 03:15:31;;;;;;;11.73;8.83;;;2.10;99.90;;;;;;5008312;28;20195;-74
2021/01/06 03:17:58;;;;;;;10.80;8.60;;;2.20;99.90;;;;;;5015453;28;20537;-73
2021/01/06 03:20:37;;;;;;;11.23;8.43;;;2.10;99.90;;;;;;5025091;28;20430;-72
2021/01/06 03:23:10;;;;;;;11.93;8.93;;;2.20;99.90;;;;;;5021143;28;20474;-72
2021/01/06 03:25:37;;;;;;;10.27;7.67;;;2.20;99.90;;;;;;5015867;28;20422;-73
2021/01/06 03:28:04;;;;;;;9.53;7.73;;;2.20;99.90;;;;;;5006471;28;20446;-73
2021/01/06 03:30:31;;;;;;;10.70;8.90;;;2.10;99.90;;;;;;5017090;28;20995;-72
2021/01/06 03:33:13;;;;;;;11.63;9.80;;;2.10;99.90;;;;;;5025338;28;20430;-72
2021/01/06 03:35:45;;;;;;;11.83;8.93;;;2.20;99.90;;;;;;5014858;28;20429;-72
2021/01/06 03:38:16;;;;;;;9.30;7.90;;;2.20;99.90;;;;;;5015929;28;20499;-73
2021/01/06 03:40:48;;;;;;;11.70;8.40;;;2.10;99.90;;;;;;5001031;28;20453;-73
2021/01/06 03:43:15;;;;;;;12.27;9.03;;;2.20;99.90;;;;;;5027154;28;20438;-73
2021/01/06 03:45:45;;;;;;;12.00;9.47;;;2.20;99.90;;;;;;5025994;28;20433;-73
2021/01/06 03:48:34;;;;;;;13.60;9.60;;;2.20;99.90;;;;;;5030070;28;20457;-74
2021/01/06 03:51:19;;;;;;;13.33;9.00;;;2.20;99.90;;;;;;5028983;28;20414;-73
2021/01/06 03:53:48;;;;;;;14.03;9.37;;;2.20;99.90;;;;;;5011567;28;20429;-73
2021/01/06 03:56:20;;;;;;;11.27;9.23;;;2.20;99.90;;;;;;5025908;28;20572;-73
2021/01/06 03:59:06;;;;;;;12.60;9.23;;;2.20;99.90;;;;;;5028545;28;20449;-71
2021/01/06 04:01:37;;;;;;;11.50;9.10;;;2.20;99.90;;;;;;5026725;28;20437;-74
2021/01/06 04:04:30;;;;;;;12.70;9.97;;;2.20;99.90;;;;;;5024975;28;20457;-73
2021/01/06 04:06:59;;;;;;;10.33;8.30;;;2.20;99.90;;;;;;5024705;28;21027;-74
2021/01/06 04:09:36;;;;;;;12.20;9.43;;;2.20;99.90;;;;;;5020781;28;20875;-73
2021/01/06 04:12:07;;;;;;;13.50;9.17;;;2.10;99.90;;;;;;5023421;28;20948;-73
2021/01/06 04:14:33;;;;;;;10.03;8.10;;;2.10;99.90;;;;;;5028804;28;20438;-74
2021/01/06 04:17:34;;;;;;;12.23;9.37;;;2.20;99.90;;;;;;5019837;28;20922;-72
2021/01/06 04:20:04;;;;;;;11.23;7.90;;;2.20;99.90;;;;;;5023364;28;20434;-72
2021/01/06 04:22:39;;;;;;;11.90;9.20;;;2.20;99.90;;;;;;5029128;28;20472;-73
2021/01/06 04:25:30;;;;;;;9.90;8.90;;;2.30;99.90;;;;;;5022858;28;20469;-73
2021/01/06 04:28:02;;;;;;;9.93;8.40;;;2.20;99.90;;;;;;5024974;28;20560;-73
2021/01/06 04:30:35;;;;;;;10.07;8.67;;;2.20;99.90;;;;;;5025504;28;20541;-73
2021/01/06 04:33:13;;;;;;;10.27;8.10;;;2.20;99.90;;;;;;5026155;28;20430;-73
2021/01/06 04:35:39;;;;;;;11.43;8.07;;;2.20;99.90;;;;;;5024236;28;20799;-73
2021/01/06 04:38:05;;;;;;;11.87;8.87;;;2.20;99.90;;;;;;5001709;28;20450;-73
2021/01/06 04:40:39;;;;;;;10.10;8.00;;;2.20;99.90;;;;;;5001469;28;20477;-74
2021/01/06 04:43:23;;;;;;;11.13;7.10;;;2.20;99.90;;;;;;5015584;28;20438;-72
2021/01/06 04:46:33;;;;;;;9.33;7.33;;;2.30;99.90;;;;;;5018584;28;20458;-73
2021/01/06 04:49:11;;;;;;;9.77;6.67;;;2.30;99.90;;;;;;5015878;28;20513;-73
2021/01/06 04:51:57;;;;;;;9.33;6.90;;;2.30;99.90;;;;;;5021804;28;20433;-73
2021/01/06 04:54:35;;;;;;;12.20;6.90;;;2.40;99.90;;;;;;5022000;28;20567;-73
2021/01/06 04:57:26;;;;;;;8.20;6.67;;;2.30;99.90;;;;;;5006531;28;20441;-72
2021/01/06 05:00:09;;;;;;;9.13;6.33;;;2.30;99.90;;;;;;5024598;28;20437;-73
2021/01/06 05:02:52;;;;;;;8.93;7.13;;;2.30;99.90;;;;;;5022620;28;20432;-72
2021/01/06 05:06:05;;;;;;;9.00;6.83;;;2.30;99.90;;;;;;5025489;28;20520;-72
2021/01/06 05:08:42;;;;;;;6.53;5.73;;;2.30;99.90;;;;;;4928328;29;20460;-71
2021/01/06 05:11:20;;;;;;;8.70;7.00;;;2.30;99.90;;;;;;5012606;28;20496;-73
2021/01/06 05:13:52;;;;;;;7.13;5.50;;;2.40;99.90;;;;;;5017031;28;20483;-72
2021/01/06 05:16:37;;;;;;;7.43;6.40;;;2.30;99.90;;;;;;5024325;28;20439;-72
2021/01/06 05:19:15;;;;;;;7.73;6.73;;;2.40;99.90;;;;;;4997215;28;20484;-74
2021/01/06 05:21:40;;;;;;;5.87;5.00;;;2.40;99.90;;;;;;5020965;28;20530;-73
2021/01/06 05:24:21;;;;;;;6.73;6.03;;;2.30;99.90;;;;;;5022790;28;21000;-72
2021/01/06 05:26:55;;;;;;;7.17;6.23;;;2.30;99.90;;;;;;5018269;28;20195;-74
2021/01/06 05:29:26;;;;;;;7.07;5.57;;;2.40;99.90;;;;;;5021611;28;20460;-73
2021/01/06 05:31:52;;;;;;;6.53;5.70;;;2.40;99.90;;;;;;5020947;28;20458;-74
2021/01/06 05:34:17;;;;;;;6.90;6.20;;;2.30;99.90;;;;;;5024922;28;20470;-75
2021/01/06 05:36:43;;;;;;;7.63;6.27;;;2.40;99.90;;;;;;5026546;28;20187;-73
2021/01/06 05:39:20;;;;;;;6.07;5.37;;;2.40;99.90;;;;;;5024632;28;20268;-73
2021/01/06 05:41:48;;;;;;;7.10;5.70;;;2.40;99.90;;;;;;5019164;28;20198;-74
2021/01/06 05:44:14;;;;;;;7.33;6.23;;;2.30;99.90;;;;;;5018230;28;20501;-74
2021/01/06 05:46:45;;;;;;;6.57;5.90;;;2.40;99.90;;;;;;5024770;28;20464;-76
2021/01/06 05:49:23;;;;;;;6.80;6.00;;;2.40;99.90;;;;;;5026160;28;20676;-74
2021/01/06 05:51:55;;;;;;;6.93;6.20;;;2.30;99.90;;;;;;5022192;28;20438;-74
2021/01/06 05:54:27;;;;;;;7.70;6.90;;;2.30;99.90;;;;;;5031188;28;20445;-74
2021/01/06 05:56:52;;;;;;;7.17;6.40;;;2.40;99.90;;;;;;5010002;28;20501;-74
2021/01/06 05:59:44;;;;;;;7.47;6.33;;;2.40;99.90;;;;;;5027331;28;20445;-74
2021/01/06 06:02:34;;;;;;;10.60;7.20;;;2.40;99.90;;;;;;5015338;28;20191;-74
2021/01/06 06:05:19;;;;;;;8.23;6.30;;;2.50;99.90;;;;;;5016362;28;20462;-74
2021/01/06 06:08:02;;;;;;;6.60;6.00;;;2.40;99.90;;;;;;5002204;28;21004;-74
2021/01/06 06:10:45;;;;;;;7.57;6.47;;;2.30;99.90;;;;;;5017632;28;20477;-74
2021/01/06 06:13:49;;;;;;;7.30;5.80;;;2.40;99.90;;;;;;5017516;28;20469;-74
2021/01/06 06:16:45;;;;;;;10.57;7.53;;;2.40;99.90;;;;;;5010572;28;20423;-74
2021/01/06 06:19:29;;;;;;;8.63;6.80;;;2.40;99.90;;;;;;5018722;28;20450;-74
2021/01/06 06:22:11;;;;;;;8.80;6.47;;;2.40;99.90;;;;;;5020207;28;20422;-74
2021/01/06 06:24:58;;;;;;;8.40;7.03;;;2.40;99.90;;;;;;5020310;28;20516;-74
2021/01/06 06:28:06;;;;;;;10.80;7.30;;;2.40;99.90;;;;;;5015017;28;20496;-73
2021/01/06 06:31:12;;;;;;;9.23;7.50;;;2.40;99.90;;;;;;5018942;28;20429;-74
2021/01/06 06:33:38;;;;;;;9.20;7.37;;;2.50;99.90;;;;;;4977154;28;20439;-74
2021/01/06 06:36:18;;;;;;;9.43;8.00;;;2.50;99.90;;;;;;5025933;28;20483;-73
2021/01/06 06:38:46;;;;;;;11.37;7.87;;;2.50;99.90;;;;;;5021319;28;20302;-74
2021/01/06 06:41:21;;;;;;;9.37;7.60;;;2.50;99.90;;;;;;5026117;28;20531;-73
2021/01/06 06:43:48;;;;;;;9.57;7.33;;;2.50;99.90;;;;;;5025398;28;20476;-73
2021/01/06 06:46:31;;;;;;;10.17;7.57;;;2.60;99.90;;;;;;5019789;28;20441;-73
2021/01/06 06:49:06;;;;;;;11.40;7.73;;;2.60;99.90;;;;;;5023659;28;20537;-74
2021/01/06 06:51:51;;;;;;;8.67;7.23;;;2.50;99.90;;;;;;5021543;28;20430;-75
2021/01/06 06:54:26;;;;;;;14.00;8.00;;;2.50;99.90;;;;;;5007950;28;20512;-74
2021/01/06 06:56:59;;;;;;;9.00;7.73;;;2.50;99.90;;;;;;5025968;28;20429;-74
2021/01/06 06:59:49;;;;;;;9.60;7.20;;;2.60;99.90;;;;;;5023074;28;20695;-74
2021/01/06 07:02:15;;;;;;;10.80;7.87;;;2.60;99.90;;;;;;5021137;28;20434;-74
2021/01/06 07:04:48;;;;;;;11.00;7.80;;;2.50;99.90;;;;;;5021245;28;21059;-74
2021/01/06 07:07:44;;;;;;;11.60;8.10;;;2.60;99.90;;;;;;5024251;28;20442;-73
2021/01/06 07:10:24;;;;;;;9.50;8.03;;;2.60;99.90;;;;;;5000004;28;20970;-74
2021/01/06 07:12:54;;;;;;;8.30;7.23;;;2.50;99.90;;;;;;5020255;28;20434;-75
2021/01/06 07:15:48;;;;;;;10.13;7.80;;;2.50;99.90;;;;;;5023673;28;20521;-74
2021/01/06 07:18:32;;;;;;;9.77;7.27;;;2.60;99.90;;;;;;5011834;28;21269;-74
2021/01/06 07:21:23;;;;;;;10.10;7.47;;;2.60;99.90;;;;;;5025389;28;20833;-74
2021/01/06 07:23:55;;;;;;;9.37;7.57;;;2.60;99.90;;;;;;5020990;28;20465;-74
2021/01/06 07:26:31;;;;;;;9.57;7.80;;;2.70;99.90;;;;;;4994035;28;20660;-74
2021/01/06 07:28:59;;;;;;;10.03;7.27;;;2.60;99.90;;;;;;5013977;28;20702;-74
2021/01/06 07:31:28;;;;;;;11.60;8.83;;;2.60;99.90;;;;;;5021005;28;20447;-74
2021/01/06 07:33:56;;;;;;;9.53;6.70;;;2.70;99.90;;;;;;5024746;28;20464;-74
2021/01/06 07:36:27;;;;;;;9.87;8.53;;;2.70;99.90;;;;;;5019983;28;20495;-74
2021/01/06 07:38:54;;;;;;;12.00;8.70;;;2.70;99.90;;;;;;5016919;28;20549;-74
2021/01/06 07:41:21;;;;;;;10.33;8.13;;;2.70;99.90;;;;;;5017492;28;20456;-73
2021/01/06 07:44:23;;;;;;;10.93;8.83;;;2.70;99.90;;;;;;5021823;28;20981;-73
2021/01/06 07:47:20;;;;;;;13.40;9.93;;;2.70;99.90;;;;;;5015197;28;20421;-74
2021/01/06 07:49:59;;;;;;;13.27;8.83;;;2.60;99.90;;;;;;4949263;28;20501;-74
2021/01/06 07:52:51;;;;;;;9.50;7.63;;;2.70;99.90;;;;;;4949732;28;20780;-73
2021/01/06 07:55:31;;;;;;;14.07;9.47;;;2.70;99.90;;;;;;4938692;28;20435;-74
2021/01/06 07:58:05;;;;;;;11.30;8.20;;;2.70;99.90;;;;;;4946606;28;20445;-74
2021/01/06 08:00:41;;;;;;;11.60;8.50;;;2.70;99.90;;;;;;4945217;28;20505;-74
2021/01/06 08:03:20;;;;;;;14.13;9.67;;;2.70;99.90;;;;;;4937214;28;20431;-73
2021/01/06 08:05:54;;;;;;;11.10;9.30;;;2.70;99.90;;;;;;4945354;28;20429;-74
2021/01/06 08:08:20;;;;;;;10.77;8.40;;;2.80;99.90;;;;;;4947900;28;20457;-74
2021/01/06 08:10:48;;;;;;;13.47;9.10;;;2.90;99.90;;;;;;4945440;28;20842;-74
2021/01/06 08:13:24;;;;;;;11.37;8.60;;;2.90;99.90;;;;;;4949743;28;20201;-74
2021/01/06 08:15:54;;;;;;;10.70;8.70;;;2.90;99.90;;;;;;4951142;28;20435;-74
2021/01/06 08:18:53;;;;;;;12.93;10.20;;;2.90;99.90;;;;;;4946137;28;20457;-74
2021/01/06 08:21:29;;;;;;;9.23;8.20;;;2.90;99.90;;;;;;4953441;28;20438;-73
2021/01/06 08:24:21;;;;;;;13.30;8.83;;;2.90;99.90;;;;;;4933936;28;20474;-73
2021/01/06 08:26:51;;;;;;;11.83;8.93;;;2.90;99.90;;;;;;4906991;29;21015;-74
2021/01/06 08:29:46;;;;;;;10.80;8.30;;;2.90;99.90;;;;;;4929122;29;20497;-74
2021/01/06 08:32:17;;;;;;;12.43;9.00;;;2.90;99.90;;;;;;4872562;29;20498;-73
2021/01/06 08:34:57;;;;;;;12.07;8.87;;;2.90;99.90;;;;;;4872882;29;20470;-74
2021/01/06 08:37:30;;;;;;;10.30;8.77;;;2.90;99.90;;;;;;4872110;29;20449;-73
2021/01/06 08:39:57;;;;;;;12.70;8.90;;;2.90;99.90;;;;;;4871497;29;20467;-73
2021/01/06 08:42:41;;;;;;;11.47;8.90;;;2.90;99.90;;;;;;4872672;29;20493;-72
2021/01/06 08:45:17;;;;;;;13.60;10.80;;;2.90;99.90;;;;;;4871207;29;20923;-72
2021/01/06 08:47:43;;;;;;;14.87;9.50;;;2.80;99.90;;;;;;4867299;29;20468;-72
2021/01/06 08:50:29;;;;;;;12.30;9.90;;;2.90;99.90;;;;;;4866976;29;21029;-72
2021/01/06 08:53:00;;;;;;;13.73;10.23;;;2.90;99.90;;;;;;4872485;29;20221;-72
2021/01/06 08:55:39;;;;;;;11.50;9.57;;;3.00;99.90;;;;;;4872243;29;20545;-72
2021/01/06 08:58:12;;;;;;;13.53;9.57;;;2.90;99.90;;;;;;4871599;29;20508;-71
2021/01/06 09:00:56;;;;;;;9.37;8.10;;;3.00;99.90;;;;;;4872763;29;20433;-73
2021/01/06 09:04:01;;;;;;;12.30;8.30;;;3.00;99.90;;;;;;4899562;28;20440;-71
2021/01/06 09:06:27;;;;;;;9.97;8.50;;;3.10;99.90;;;;;;4958330;28;20869;-73
2021/01/06 09:09:04;;;;;;;10.37;8.67;;;3.00;99.90;;;;;;4998178;28;20449;-72
2021/01/06 09:11:42;;;;;;;11.00;8.20;;;3.10;99.90;;;;;;5023262;28;20584;-73
2021/01/06 09:14:26;;;;;;;10.53;8.90;;;3.20;99.90;;;;;;5028462;28;20418;-72
2021/01/06 09:16:57;;;;;;;10.30;7.70;;;3.30;99.90;;;;;;5026965;28;20475;-73
2021/01/06 09:19:50;;;;;;;9.03;8.07;;;3.30;99.90;;;;;;5020348;28;20472;-72
2021/01/06 09:22:17;;;;;;;9.93;7.63;;;3.30;99.90;;;;;;5025999;28;20476;-72
2021/01/06 09:24:44;;;;;;;8.80;7.43;;;3.30;99.90;;;;;;5027107;28;20855;-72
2021/01/06 09:27:28;;;;;;;12.10;7.87;;;3.20;99.90;;;;;;5022678;28;20974;-72
2021/01/06 09:29:54;;;;;;;9.07;7.83;;;3.20;99.90;;;;;;5028471;28;20421;-74
2021/01/06 09:32:24;;;;;;;9.93;7.47;;;3.20;99.90;;;;;;5025449;28;20437;-71
2021/01/06 09:35:00;;;;;;;11.47;8.70;;;3.30;99.90;;;;;;5027061;28;20489;-71
2021/01/06 09:37:30;;;;;;;8.97;7.07;;;3.30;99.90;;;;;;5028803;28;20453;-72
2021/01/06 09:40:07;;;;;;;10.07;7.67;;;3.30;99.90;;;;;;5023883;28;20955;-72
2021/01/06 09:42:32;;;;;;;12.70;8.60;;;3.40;99.90;;;;;;5022370;28;20441;-72
2021/01/06 09:44:58;;;;;;;9.40;6.83;;;3.40;99.90;;;;;;5022445;28;20503;-72
2021/01/06 09:47:29;;;;;;;8.57;7.47;;;3.50;99.90;;;;;;5022660;28;20187;-71
2021/01/06 09:49:57;;;;;;;11.80;8.90;;;3.60;99.90;;;;;;5009658;28;20229;-72
2021/01/06 09:52:31;;;;;;;8.63;7.40;;;3.70;99.90;;;;;;5025622;28;20440;-72
2021/01/06 09:54:58;;;;;;;9.93;7.67;;;3.70;99.90;;;;;;5019097;28;20480;-72
2021/01/06 09:57:26;;;;;;;9.43;7.33;;;3.70;99.90;;;;;;5015038;28;20442;-72
2021/01/06 09:59:54;;;;;;;8.17;7.30;;;3.70;99.90;;;;;;5026568;28;20426;-72
2021/01/06 10:02:20;;;;;;;9.27;7.67;;;3.70;99.90;;;;;;5003338;28;20804;-72
2021/01/06 10:04:48;;;;;;;8.27;7.13;;;3.60;99.90;;;;;;5024890;28;20469;-71
2021/01/06 10:07:58;;;;;;;8.17;7.20;;;3.60;99.90;;;;;;5017927;28;20204;-72
2021/01/06 10:10:28;;;;;;;7.73;6.40;;;3.70;99.90;;;;;;5020752;28;21006;-72
2021/01/06 10:13:00;;;;;;;9.03;6.57;;;3.60;99.90;;;;;;5004133;28;20426;-71
2021/01/06 10:15:44;;;;;;;7.23;6.30;;;3.60;99.90;;;;;;5017377;28;20430;-72
2021/01/06 10:18:51;;;;;;;7.40;6.50;;;3.50;99.90;;;;;;5021936;28;20457;-72
2021/01/06 10:21:41;;;;;;;7.90;6.40;;;3.60;99.90;;;;;;5016145;28;20921;-71
2021/01/06 10:24:38;;;;;;;9.90;6.97;;;3.60;99.90;;;;;;5022097;28;20488;-72
2021/01/06 10:27:03;;;;;;;7.33;6.10;;;3.60;99.90;;;;;;5020936;28;20430;-71
2021/01/06 10:29:29;;;;;;;8.93;6.43;;;3.60;99.90;;;;;;5024385;28;20449;-72
2021/01/06 10:32:10;;;;;;;7.00;5.97;;;3.60;99.90;;;;;;5020037;28;20207;-72
2021/01/06 10:34:43;;;;;;;6.77;5.93;;;3.50;99.90;;;;;;5021202;28;20527;-72
2021/01/06 10:37:16;;;;;;;7.60;6.30;;;3.50;99.90;;;;;;5023193;28;20797;-72
2021/01/06 10:39:48;;;;;;;9.30;8.40;;;3.60;99.90;;;;;;5025345;28;20469;-72
2021/01/06 10:42:22;;;;;;;9.10;7.30;;;3.60;99.90;;;;;;5017702;28;20444;-72
2021/01/06 10:44:54;;;;;;;7.83;5.87;;;3.70;99.90;;;;;;5025704;28;20522;-73
2021/01/06 10:47:32;;;;;;;6.20;5.60;;;3.70;99.90;;;;;;5024064;28;20774;-72
2021/01/06 10:50:23;;;;;;;6.27;5.67;;;3.70;99.90;;;;;;5017588;28;20484;-72
2021/01/06 10:53:03;;;;;;;6.80;5.97;;;3.80;99.90;;;;;;5016135;28;20426;-72
2021/01/06 10:55:50;;;;;;;6.83;5.77;;;3.90;99.90;;;;;;5020741;28;20430;-73
2021/01/06 10:58:24;;;;;;;6.27;5.27;;;4.00;99.90;;;;;;5023646;28;20503;-72
2021/01/06 11:01:15;;;;;;;8.70;6.67;;;4.00;99.90;;;;;;5025786;28;20535;-72
2021/01/06 11:04:01;;;;;;;7.07;5.47;;;4.10;99.90;;;;;;5021692;28;20458;-71
2021/01/06 11:06:45;;;;;;;7.60;6.13;;;4.00;99.90;;;;;;5021812;28;20425;-71
2021/01/06 11:09:33;;;;;;;6.20;5.60;;;4.00;99.90;;;;;;5025572;28;20450;-72
2021/01/06 11:12:30;;;;;;;7.57;6.00;;;4.00;99.90;;;;;;5000891;28;20433;-72
2021/01/06 11:15:20;;;;;;;6.17;4.80;;;3.90;99.90;;;;;;5025934;28;20437;-72
2021/01/06 11:18:19;;;;;;;7.23;6.10;;;4.10;99.90;;;;;;5019269;28;20462;-72
2021/01/06 11:21:12;;;;;;;6.20;5.60;;;4.10;99.90;;;;;;5020073;28;20440;-73
2021/01/06 11:23:47;;;;;;;6.53;5.37;;;4.10;99.90;;;;;;5022128;28;20445;-73
2021/01/06 11:26:30;;;;;;;8.03;6.50;;;4.00;99.90;;;;;;5021374;28;20437;-73
2021/01/06 11:29:13;;;;;;;6.93;6.00;;;4.00;99.90;;;;;;5019229;28;20878;-71
2021/01/06 11:31:59;;;;;;;7.53;6.20;;;4.10;99.90;;;;;;5018742;28;20457;-73
2021/01/06 11:34:30;;;;;;;6.00;5.10;;;4.00;99.90;;;;;;5023689;28;20521;-70
2021/01/06 11:36:59;;;;;;;6.60;5.90;;;4.00;99.90;;;;;;5014696;28;20431;-72
2021/01/06 11:39:27;;;;;;;6.93;5.27;;;4.00;99.90;;;;;;5020893;28;20458;-73
2021/01/06 11:41:55;;;;;;;5.90;5.30;;;4.00;99.90;;;;;;5004868;28;20444;-75
2021/01/06 11:44:35;;;;;;;6.50;5.40;;;4.00;99.90;;;;;;5022718;28;20501;-73
2021/01/06 11:47:28;;;;;;;7.00;5.50;;;4.00;99.90;;;;;;5005988;28;20810;-75
2021/01/06 11:50:05;;;;;;;6.10;5.50;;;4.10;99.90;;;;;;5015617;28;20795;-74
2021/01/06 11:52:48;;;;;;;6.00;5.43;;;4.10;99.90;;;;;;5022889;28;20430;-73
2021/01/06 11:55:29;;;;;;;6.27;5.67;;;4.10;99.90;;;;;;5024251;28;20434;-73
2021/01/06 11:57:55;;;;;;;6.03;5.43;;;4.00;99.90;;;;;;5019073;28;20449;-74
2021/01/06 12:00:28;;;;;;;6.47;5.87;;;4.00;99.90;;;;;;5022678;28;20443;-75
2021/01/06 12:03:22;;;;;;;6.30;5.70;;;4.10;99.90;;;;;;5026080;28;20194;-75
2021/01/06 12:06:17;;;;;;;8.23;6.40;;;4.10;99.90;;;;;;5029637;28;20437;-75
2021/01/06 12:08:57;;;;;;;7.23;6.13;;;4.10;99.90;;;;;;5020199;28;20446;-75
2021/01/06 12:11:35;;;;;;;6.80;5.47;;;4.20;99.90;;;;;;5018434;28;20785;-76
2021/01/06 12:14:24;;;;;;;6.97;6.27;;;4.20;99.90;;;;;;5021398;28;20961;-75
2021/01/06 12:17:08;;;;;;;7.43;6.40;;;4.20;99.90;;;;;;5027288;28;20414;-75
2021/01/06 12:20:18;;;;;;;6.97;5.43;;;4.30;99.90;;;;;;5025045;28;20454;-75
2021/01/06 12:23:15;;;;;;;7.20;6.13;;;4.20;99.90;;;;;;4993647;28;20429;-75
2021/01/06 12:25:51;;;;;;;7.37;6.13;;;4.30;99.90;;;;;;5022754;28;20461;-75
2021/01/06 12:28:46;;;;;;;5.87;5.23;;;4.40;99.90;;;;;;5029147;28;20793;-75
2021/01/06 12:31:19;;;;;;;5.57;5.00;;;4.40;99.90;;;;;;5008700;28;20448;-75
2021/01/06 12:34:08;;;;;;;6.40;5.33;;;4.30;99.90;;;;;;5025971;28;20430;-75
2021/01/06 12:36:55;;;;;;;6.80;6.10;;;4.10;99.90;;;;;;5027757;28;20441;-75
2021/01/06 12:39:32;;;;;;;7.27;6.10;;;4.10;99.90;;;;;;5020752;28;20453;-75
2021/01/06 12:42:22;;;;;;;7.20;6.37;;;4.10;99.90;;;;;;5028777;28;20672;-75
2021/01/06 12:45:09;;;;;;;7.07;5.53;;;4.00;99.90;;;;;;5024104;28;20842;-76
2021/01/06 12:48:10;;;;;;;6.90;5.87;;;4.00;99.90;;;;;;5027445;28;20472;-75
2021/01/06 12:50:59;;;;;;;6.63;5.93;;;4.00;99.90;;;;;;5024903;28;20418;-75
2021/01/06 12:53:39;;;;;;;7.40;6.40;;;4.00;99.90;;;;;;5004750;28;20473;-75
2021/01/06 12:56:04;;;;;;;7.87;7.00;;;4.00;99.90;;;;;;5024441;28;20429;-76
2021/01/06 12:58:44;;;;;;;6.97;6.03;;;4.00;99.90;;;;;;5028197;28;20492;-75
2021/01/06 13:01:25;;;;;;;7.43;6.73;;;4.00;99.90;;;;;;5022988;28;20209;-75
2021/01/06 13:03:56;;;;;;;6.73;6.03;;;4.00;99.90;;;;;;5019536;28;20466;-75
2021/01/06 13:06:35;;;;;;;10.73;6.63;;;4.20;99.90;;;;;;5014837;28;20914;-75
2021/01/06 13:09:13;;;;;;;7.60;6.40;;;4.20;99.90;;;;;;5002931;28;20459;-75
2021/01/06 13:11:39;;;;;;;8.33;6.80;;;4.10;99.90;;;;;;5019586;28;20417;-75
2021/01/06 13:14:29;;;;;;;7.03;6.33;;;4.10;99.90;;;;;;5008885;28;20425;-75
2021/01/06 13:17:25;;;;;;;7.93;6.03;;;4.00;99.90;;;;;;5024044;28;20180;-76
2021/01/06 13:20:05;;;;;;;6.50;5.20;;;4.00;99.90;;;;;;5022081;28;20465;-75
2021/01/06 13:22:47;;;;;;;7.03;5.73;;;4.10;99.90;;;;;;5021965;28;20963;-75
2021/01/06 13:25:24;;;;;;;6.87;6.17;;;4.10;99.90;;;;;;5018982;28;20912;-75
2021/01/06 13:27:53;;;;;;;5.27;4.77;;;4.10;99.90;;;;;;5006687;28;20450;-75
2021/01/06 13:30:50;;;;;;;6.90;6.13;;;4.10;99.90;;;;;;5024824;28;20430;-75
2021/01/06 13:33:15;;;;;;;6.53;5.93;;;4.10;99.90;;;;;;4945132;28;20496;-75
2021/01/06 13:35:47;;;;;;;6.13;5.53;;;4.10;99.90;;;;;;4942333;29;20473;-73
2021/01/06 13:38:24;;;;;;;6.20;5.60;;;4.10;99.90;;;;;;4947414;29;20217;-74